Hovedside
METAR-TAF:

METAR-TAF

Lufthavner :

Riga internasjonale lufthavn

Riga, Latvia

breddegrad: 56-55N, lengdegrad: 023-58E, høyde over havet: 10 m

Gjeldene værobservasjon

Denne rapporten ble laget for 30 minutter siden, klokken 17:20 UTC
Vind 10 kt fra Nord-nordøst
Temperatur 0°C
Luftfuktighet 80%
Trykk 1026 hPa
Sikt 10 km eller mer
Overskyet i en høyde av 2700 ft

METAR: EVRA 121720Z 03010KT 9999 OVC027 00/M03 Q1026 R36/290195 NOSIG

Tid: 19:50 (17:50 UTC)

Varsel

Denne rapporten ble laget for 46 minutter siden, klokken 17:04 UTC
Varsel gyldig fra 12. klokken 18 UTC til 13. klokken 18 UTC
Vind 7 kt fra Nord-nordøst
Sikt 10 km eller mer
Overskyet i en høyde av 2000 ft
Sannsynlighet 40% :
Midlertidig
fra 13. klokken 00 UTC til 13. klokken 12 UTC
Brutte skyer i en høyde av 1000 ft
Overskyet i en høyde av 2000 ft

TAF: EVRA 121704Z 1218/1318 03007KT 9999 OVC020 PROB40 TEMPO 1300/1312 BKN010 OVC020

Værobservasjoner og værvarsel for over 4000 flyplasser (METAR- og TAF-rapporter).

Tilgjengelige stasjoner er representert av de røde og gule prikkene på kartet.

Hold musepekeren over prikken for å se navnet på stasjonen.

Klikk så for å se værobservasjoner og -varsler.

For å forandre kartet kan du klikke på den grønne knappen med svart kryss for å zoome inn, på den grønne knappen med strek for å zoome ut, eller på de grønne pilene for å se tilstøtende kart.


METAR-TAF: